Terminal Aerodrome Forecast
Issued by NWS

Home | Current Version | Previous Version | Text Only | Print | Product List | Glossary On
Versions: 1 2 3 4 5 6 7 8 9 10 11 12 13 14 15 16
000
FTUS42 KTBW 250021 AAA
TAFPIE
TAF AMD
KPIE 250021Z 2500/2524 09012KT P6SM FEW070
     FM250600 10007KT P6SM SCT250
     FM251400 13009KT P6SM SCT250
     FM252000 07006KT P6SM SCT050 SCT250=

USA.gov is the U.S. government's official web portal to all federal, state and local government web resources and services.